Nearby METAR Reports

EGNX - East Midlands, United Kingdom
Distance: S 18mi, 28km
Updated: 22/01/2020 20:20
Fog
Fog
 Wind from SSW
Wind: SSW 8 mph , 13 km/h
Temperature: 7°C
Wind Chill: 5°C
Dew Point: 7°C
Humidity: 100%
Barometer: 1036 hPa
Summary: Fog
Visibility: 0 mile , 0 km
2020/01/22 20:20 EGNX 222020Z 21007KT 0100 R27/0275 FG VV/// 07/07 Q1036
EGCN - Doncaster Sheffi, United Kingdom
Distance: NNE 31mi, 50km
Updated: 22/01/2020 20:20
Fog, Overcast
Fog, Overcast
 Wind from calm
Wind: Calm
Temperature: 2°C
Dew Point: 2°C
Humidity: 100%
Barometer: 1037 hPa
Summary: Fog
Clouds: Overcast
Visibility: 0 mile , 0 km
Cloud details: Overcast 0 m
2020/01/22 20:20 EGCN 222020Z 00000KT 0250 R20/0350 FG OVC000 02/02 Q1037
EGYE - Barkston Heath R, United Kingdom
Distance: ESE 31mi, 50km
Updated: 22/01/2020 14:50
NOT Current
Mist, Mostly cloudy
Mist, Mostly cloudy
 Wind from SW
Wind: SW 5 mph , 7 km/h
Barometer: 1034 hPa
Summary: Mist
Clouds: Mostly cloudy
Visibility: 2 miles , 4 km
Cloud details: Mostly cloudy 1280 m
Mostly cloudy 2438 m
2020/01/22 14:50 EGYE 221450Z 23004KT 3500 BR BKN042 BKN080 ///// Q1034 RMK YLO1
 
EGXW - Waddington Raf, United Kingdom
Distance: ENE 33mi, 53km
Updated: 22/01/2020 19:50
Mist, Overcast
Mist, Overcast
 Wind from WSW
Wind: WSW 7 mph , 11 km/h
Temperature: 8°C
Wind Chill: 6°C
Dew Point: 7°C
Humidity: 93%
Barometer: 1036 hPa
Summary: Mist
Clouds: Overcast
Visibility: 3 miles , 5 km
Cloud details: Overcast 2134 m
2020/01/22 19:50 EGXW 221950Z AUTO 24006KT 4600 BR OVC070/// 08/07 Q1036
EGYD - Cranwell Raf, United Kingdom
Distance: E 33mi, 53km
Updated: 22/01/2020 19:50
Overcast
Overcast
 Wind from WSW
Wind: WSW 6 mph , 9 km/h
Temperature: 7°C
Wind Chill: 6°C
Dew Point: 6°C
Humidity: 93%
Barometer: 1036 hPa
Clouds: Overcast
Visibility: 1 mile , 2 km
Cloud details: Overcast 2438 m
2020/01/22 19:50 EGYD 221950Z AUTO 24005KT 2100 // OVC080/// 07/06 Q1036
EGXP - Scampton Raf, United Kingdom
Distance: ENE 35mi, 56km
Updated: 22/01/2020 19:50
Few Clouds
Few Clouds
 Wind from WSW
Wind: WSW 5 mph , 7 km/h
Temperature: 5°C
Wind Chill: 3°C
Dew Point: 5°C
Humidity: 100%
Barometer: 1036 hPa
Clouds: Few Clouds
Visibility: 0 mile , 0 km
Cloud details: Few Clouds 61 m
2020/01/22 19:50 EGXP 221950Z AUTO 24004KT 0200 // FEW002/// 05/05 Q1036
 
EGCC - Manchester Intl, United Kingdom
Distance: WNW 45mi, 72km
Updated: 22/01/2020 20:20
Fog
Fog
 Wind from WNW
Wind: WNW 3 mph , 6 km/h
Temperature: 7°C
Dew Point: 7°C
Humidity: 100%
Barometer: 1037 hPa
Summary: Fog
Visibility: 0 mile , 1 km
2020/01/22 20:20 EGCC 222020Z 29003KT 0600 R23R/0900 FG VV/// 07/07 Q1037
EGBB - Birmingham Airpo, United Kingdom
Distance: SSW 46mi, 74km
Updated: 22/01/2020 20:20
Mist, Overcast
Mist, Overcast
 Wind from varies
Wind: varies 2 mph , 4 km/h
Temperature: 8°C
Dew Point: 8°C
Humidity: 100%
Barometer: 1036 hPa
Summary: Mist
Clouds: Overcast
Visibility: 1 mile , 2 km
Cloud details: Overcast 61 m
2020/01/22 20:20 EGBB 222020Z VRB02KT 2200 BR OVC002 08/08 Q1036
EGXC - Coningsby Raf, United Kingdom
Distance: E 47mi, 75km
Updated: 22/01/2020 19:50
Fog, Partly cloudy
Fog, Partly cloudy
 Wind from S
Wind: S 2 mph , 4 km/h
Temperature: 6°C
Dew Point: 5°C
Humidity: 93%
Barometer: 1036 hPa
Summary: Fog
Clouds: Partly cloudy
Visibility: 0 mile , 0 km
Cloud details: Partly cloudy 2438 m
2020/01/22 19:50 EGXC 221950Z 17002KT 0100 FG SCT080 06/05 Q1036 RMK RED
 
EGXT - Wittering Raf, United Kingdom
Distance: SE 47mi, 75km
Updated: 22/01/2020 19:50
Fog, Mostly cloudy
Fog, Mostly cloudy
 Wind from WSW
Wind: WSW 2 mph , 4 km/h
Temperature: 6°C
Dew Point: 6°C
Humidity: 100%
Barometer: 1036 hPa
Summary: Fog
Clouds: Mostly cloudy
Visibility: 0 mile , 0 km
Cloud details: Partly cloudy 244 m
Mostly cloudy 2438 m
2020/01/22 19:50 EGXT 221950Z AUTO 24002KT 0300 FG SCT008/// BKN080/// 06/06 Q1036
EGNJ - Humberside, United Kingdom
Distance: NE 52mi, 83km
Updated: 22/01/2020 20:20
Mist, Mostly cloudy
Mist, Mostly cloudy
 Wind from SSW
Wind: SSW 7 mph , 11 km/h
Temperature: 6°C
Wind Chill: 4°C
Dew Point: 6°C
Humidity: 100%
Barometer: 1036 hPa
Summary: Mist
Clouds: Mostly cloudy
Visibility: 1 mile , 2 km
Cloud details: Mostly cloudy 823 m
2020/01/22 20:20 EGNJ 222020Z 21006KT 2000 BR BKN027 06/06 Q1036
EGWC - Cosford Raf, United Kingdom
Distance: SW 52mi, 83km
Updated: 22/01/2020 08:50
NOT Current
Fog
Fog
 Wind from NNW
Wind: NNW 8 mph , 13 km/h
Temperature: 7°C
Wind Chill: 5°C
Dew Point: 7°C
Humidity: 100%
Barometer: 1038 hPa
Summary: Fog
Visibility: 0 mile , 1 km
2020/01/22 08:50 EGWC 220850Z 34007KT 0600 FG VV/// 07/07 Q1038 RMK RED
 
EGNM - Leeds And Bradfo, United Kingdom
Distance: NNW 57mi, 91km
Updated: 22/01/2020 20:20
Mist, Mostly cloudy
Mist, Mostly cloudy
 Wind from WNW
Wind: WNW 7 mph , 11 km/h
Temperature: 6°C
Wind Chill: 4°C
Dew Point: 6°C
Humidity: 100%
Barometer: 1036 hPa
Summary: Mist
Clouds: Mostly cloudy
Visibility: 1 mile , 1 km
Cloud details: Partly cloudy 30 m
Mostly cloudy 61 m
2020/01/22 20:20 EGNM 222020Z 30006KT 1200 R32/P1500 BR SCT001 BKN002 06/06 Q1036
EGOS - Shawbury Raf, United Kingdom
Distance: WSW 60mi, 97km
Updated: 22/01/2020 19:50
Fog
Fog
 Wind from NNW
Wind: NNW 3 mph , 6 km/h
Temperature: 7°C
Dew Point: 7°C
Humidity: 100%
Barometer: 1036 hPa
Summary: Fog
Visibility: 0 mile , 0 km
2020/01/22 19:50 EGOS 221950Z AUTO 33003KT 0200 FG VV/// 07/07 Q1036
EGYH - Holbeach (aut), United Kingdom
Distance: ESE 62mi, 99km
Updated: 22/01/2020 15:50
NOT Current
Mist, Mostly cloudy
Mist, Mostly cloudy
 Wind from WSW
Wind: WSW 3 mph , 6 km/h
Temperature: 8°C
Dew Point: 8°C
Humidity: 100%
Barometer: 1036 hPa
Summary: Mist
Clouds: Mostly cloudy
Visibility: 2 miles , 4 km
Cloud details: Mostly cloudy 1372 m
2020/01/22 15:50 EGYH 221550Z 24003KT 4000 BR BKN045 08/08 Q1036 RMK GRN
 
EGXV - Leconfield (aut), United Kingdom
Distance: NNE 65mi, 105km
Updated: 22/01/2020 19:50
Clear
Clear
 Wind from WNW
Wind: WNW 3 mph , 6 km/h
Temperature: 4°C
Dew Point: 4°C
Humidity: 100%
Barometer: 1035 hPa
Clouds: Clear
Visibility: 2 miles , 3 km
2020/01/22 19:50 EGXV 221950Z AUTO 30003KT 3400 NCD 04/04 Q1035
EGXS - Donna Nook Raf, United Kingdom
Distance: ENE 66mi, 106km
Updated: 22/01/2020 19:50
Mostly cloudy
Mostly cloudy
 Wind from SW
Wind: SW 5 mph , 7 km/h
Temperature: 7°C
Wind Chill: 6°C
Dew Point: 7°C
Humidity: 100%
Barometer: 1036 hPa
Clouds: Mostly cloudy
Visibility: 3 miles , 5 km
Cloud details: Mostly cloudy 2134 m
2020/01/22 19:50 EGXS 221950Z AUTO 22004KT 4800 // BKN070/// 07/07 Q1036
EGGP - Liverpool Airpor, United Kingdom
Distance: WNW 67mi, 107km
Updated: 22/01/2020 20:20
Mist, Overcast
Mist, Overcast
 Wind from varies
Wind: varies 2 mph , 4 km/h
Temperature: 8°C
Dew Point: 8°C
Humidity: 100%
Barometer: 1037 hPa
Summary: Mist
Clouds: Overcast
Visibility: 1 mile , 2 km
Cloud details: Mostly cloudy 30 m
Overcast 61 m
2020/01/22 20:20 EGGP 222020Z VRB02KT 1800 BR BKN001 OVC002 08/08 Q1037
 
EGXU - Linton-On-Ouse R, United Kingdom
Distance: N 68mi, 109km
Updated: 22/01/2020 19:50
Clear
Clear
 Wind from W
Wind: W 1 mph , 2 km/h
Temperature: 5°C
Dew Point: 5°C
Humidity: 100%
Barometer: 1036 hPa
Clouds: Clear
Visibility: 6 miles , 9 km
2020/01/22 19:50 EGXU 221950Z AUTO 27001KT 9000 NCD 05/05 Q1036
EGNR - Hawarden (aut), United Kingdom
Distance: W 70mi, 112km
Updated: 22/01/2020 20:20
Fog
Fog
 Wind from varies
Wind: varies 2 mph , 4 km/h
Temperature: 7°C
Dew Point: 6°C
Humidity: 93%
Barometer: 1037 hPa
Summary: Fog
Visibility: 0 mile , 0 km
2020/01/22 20:20 EGNR 222020Z VRB02KT 0150 FG VV/// 07/06 Q1037